Time;durP1;ratioP1;P1;durP2;ratioP2;P2;SDS_P1;SDS_P2;PMS_P1;PMS_P2;Temp;Humidity;BMP_temperature;BMP_pressure;BME280_temperature;BME280_humidity;BME280_pressure;Samples;Min_cycle;Max_cycle;Signal;HPM_P1;HPM_P2
2022/05/12 00:00:43;;;;;;;54.40;50.20;;;18.00;99.90;;;;;;4926976;29;20200;-67
2022/05/12 00:03:09;;;;;;;383.50;359.13;;;18.10;99.90;;;;;;4925446;29;20697;-68
2022/05/12 00:05:35;;;;;;;233.70;218.40;;;18.10;99.90;;;;;;4927454;29;20217;-66
2022/05/12 00:08:00;;;;;;;232.23;217.20;;;18.10;99.90;;;;;;4924919;29;20195;-65
2022/05/12 00:10:26;;;;;;;36.00;29.20;;;18.20;99.90;;;;;;4926766;29;20213;-67
2022/05/12 00:12:53;;;;;;;50.07;45.33;;;18.20;99.90;;;;;;4925292;29;20254;-67
2022/05/12 00:15:25;;;;;;;338.10;318.03;;;18.10;99.90;;;;;;4925423;29;20206;-67
2022/05/12 00:17:50;;;;;;;34.17;31.17;;;18.10;99.90;;;;;;4924879;29;20295;-67
2022/05/12 00:20:19;;;;;;;371.63;347.40;;;18.10;99.90;;;;;;4926858;29;20197;-67
2022/05/12 00:22:45;;;;;;;31.10;28.20;;;18.10;99.90;;;;;;4924897;29;20216;-67
2022/05/12 00:25:17;;;;;;;194.30;181.73;;;18.10;99.90;;;;;;4926488;29;20568;-67
2022/05/12 00:27:42;;;;;;;565.10;527.53;;;18.20;99.90;;;;;;4924802;29;20225;-69
2022/05/12 00:30:09;;;;;;;102.20;95.83;;;18.20;99.90;;;;;;4926875;29;20192;-66
2022/05/12 00:32:45;;;;;;;142.40;134.33;;;18.30;99.90;;;;;;4924871;29;20572;-66
2022/05/12 00:35:13;;;;;;;226.93;212.80;;;18.30;99.90;;;;;;4926701;29;20240;-66
2022/05/12 00:37:38;;;;;;;202.33;188.30;;;18.30;99.90;;;;;;4924792;29;20225;-68
2022/05/12 00:40:05;;;;;;;22.43;12.40;;;18.30;99.90;;;;;;4927200;29;20189;-67
2022/05/12 00:42:31;;;;;;;18.97;16.17;;;18.30;99.90;;;;;;4924636;29;20578;-66
2022/05/12 00:44:56;;;;;;;18.20;9.33;;;18.30;99.90;;;;;;4927066;29;20326;-67
2022/05/12 00:47:21;;;;;;;17.23;9.53;;;18.20;99.90;;;;;;4924542;29;20671;-67
2022/05/12 00:49:51;;;;;;;22.10;16.90;;;18.20;99.90;;;;;;4927158;29;20259;-68
2022/05/12 00:52:26;;;;;;;39.57;35.57;;;18.30;99.90;;;;;;4925375;29;20589;-66
2022/05/12 00:55:00;;;;;;;18.33;10.33;;;18.20;99.90;;;;;;4925780;29;20223;-58
2022/05/12 00:57:44;;;;;;;94.27;86.53;;;18.20;99.90;;;;;;4921123;29;20196;-60
2022/05/12 01:00:15;;;;;;;217.33;202.27;;;18.20;99.90;;;;;;4923974;29;20217;-67
2022/05/12 01:02:44;;;;;;;16.47;9.07;;;18.20;99.90;;;;;;4921751;29;20230;-67
2022/05/12 01:05:11;;;;;;;26.03;13.97;;;18.30;99.90;;;;;;4924018;29;20224;-67
2022/05/12 01:07:37;;;;;;;11.27;6.87;;;18.30;99.90;;;;;;4925659;29;20228;-68
2022/05/12 01:10:04;;;;;;;16.13;9.20;;;18.30;99.90;;;;;;4923798;29;20222;-67
2022/05/12 01:12:31;;;;;;;11.67;7.00;;;18.40;99.90;;;;;;4929212;29;20193;-66
2022/05/12 01:14:57;;;;;;;14.50;10.37;;;18.40;99.90;;;;;;4928302;29;20217;-66
2022/05/12 01:17:24;;;;;;;136.57;127.60;;;18.40;99.90;;;;;;4929728;29;20562;-67
2022/05/12 01:19:51;;;;;;;370.20;344.60;;;18.30;99.90;;;;;;4928197;29;20576;-66
2022/05/12 01:22:42;;;;;;;222.80;209.40;;;18.40;99.90;;;;;;4930251;29;20715;-66
2022/05/12 01:25:14;;;;;;;14.67;7.10;;;18.30;99.90;;;;;;4921871;29;20661;-69
2022/05/12 01:27:42;;;;;;;17.63;11.33;;;18.20;99.90;;;;;;4927810;29;20218;-69
2022/05/12 01:30:09;;;;;;;10.83;7.97;;;18.00;99.90;;;;;;4930388;29;20182;-66
2022/05/12 01:32:35;;;;;;;59.17;54.07;;;17.90;99.90;;;;;;4929125;29;20562;-67
2022/05/12 01:35:01;;;;;;;51.53;46.60;;;17.70;99.90;;;;;;4928251;29;20219;-66
2022/05/12 01:37:26;;;;;;;137.93;127.80;;;17.60;99.90;;;;;;4930363;29;20223;-68
2022/05/12 01:39:52;;;;;;;211.23;194.80;;;17.50;99.90;;;;;;4928450;29;20231;-68
2022/05/12 01:42:18;;;;;;;34.47;31.13;;;17.50;99.90;;;;;;4930037;29;20559;-67
2022/05/12 01:44:43;;;;;;;76.43;69.53;;;17.50;99.90;;;;;;4927268;29;20220;-68
2022/05/12 01:47:10;;;;;;;35.47;31.80;;;17.50;99.90;;;;;;4929086;29;20299;-66
2022/05/12 01:49:36;;;;;;;162.57;149.37;;;17.40;99.90;;;;;;4927781;29;20344;-67
2022/05/12 01:52:02;;;;;;;112.70;103.93;;;17.40;99.90;;;;;;4929939;29;20866;-69
2022/05/12 01:54:29;;;;;;;81.90;75.30;;;17.40;99.90;;;;;;4927985;29;20216;-67
2022/05/12 01:56:55;;;;;;;105.70;97.37;;;17.40;99.90;;;;;;4929562;29;20197;-76
2022/05/12 01:59:21;;;;;;;88.83;81.73;;;17.50;99.90;;;;;;4927820;29;20205;-77
2022/05/12 02:01:48;;;;;;;15.87;8.37;;;17.40;99.90;;;;;;4929705;29;20272;-76
2022/05/12 02:04:15;;;;;;;15.33;9.67;;;17.30;99.90;;;;;;4927537;29;20213;-75
2022/05/12 02:06:41;;;;;;;55.67;50.63;;;17.30;99.90;;;;;;4928714;29;20670;-72
2022/05/12 02:09:07;;;;;;;14.73;8.07;;;17.30;99.90;;;;;;4927100;29;20215;-74
2022/05/12 02:11:33;;;;;;;15.80;8.13;;;17.30;99.90;;;;;;4929469;29;20201;-74
2022/05/12 02:13:59;;;;;;;20.00;7.93;;;17.20;99.90;;;;;;4927492;29;20212;-74
2022/05/12 02:16:25;;;;;;;30.43;12.27;;;17.10;99.90;;;;;;4928164;29;20600;-75
2022/05/12 02:18:54;;;;;;;106.87;99.17;;;16.90;99.90;;;;;;4927224;29;20231;-73
2022/05/12 02:21:20;;;;;;;43.60;39.50;;;16.30;99.90;;;;;;4928423;29;20648;-77
2022/05/12 02:23:46;;;;;;;116.33;107.73;;;15.90;99.90;;;;;;4925345;29;20227;-76
2022/05/12 02:26:12;;;;;;;109.77;102.20;;;15.60;99.90;;;;;;4928418;29;20215;-72
2022/05/12 02:28:38;;;;;;;26.27;15.43;;;15.50;99.90;;;;;;4926774;29;20215;-74
2022/05/12 02:31:13;;;;;;;59.23;53.83;;;15.40;99.90;;;;;;4929275;29;20203;-74
2022/05/12 02:33:38;;;;;;;223.20;207.80;;;15.20;99.90;;;;;;4925231;29;20240;-73
2022/05/12 02:36:05;;;;;;;104.83;95.23;;;15.00;99.90;;;;;;4928636;29;20384;-73
2022/05/12 02:38:30;;;;;;;84.80;77.93;;;15.00;99.90;;;;;;4921469;29;20302;-76
2022/05/12 02:40:56;;;;;;;335.60;310.90;;;14.90;99.90;;;;;;4928501;29;20289;-76
2022/05/12 02:43:24;;;;;;;35.50;29.43;;;14.80;99.90;;;;;;4926817;29;20725;-75
2022/05/12 02:45:52;;;;;;;24.47;15.07;;;14.70;99.90;;;;;;4928200;29;20277;-74
2022/05/12 02:48:23;;;;;;;35.13;18.10;;;14.70;99.90;;;;;;4926992;29;20218;-73
2022/05/12 02:50:49;;;;;;;25.03;14.13;;;14.60;99.90;;;;;;4928366;29;20203;-73
2022/05/12 02:53:15;;;;;;;26.83;14.87;;;14.60;99.90;;;;;;4926666;29;20267;-72
2022/05/12 02:55:41;;;;;;;30.27;18.17;;;14.60;99.90;;;;;;4928147;29;20195;-73
2022/05/12 02:58:06;;;;;;;29.87;15.47;;;14.60;99.90;;;;;;4926590;29;20745;-74
2022/05/12 03:00:33;;;;;;;33.67;19.67;;;14.40;99.90;;;;;;4928049;29;20250;-75
2022/05/12 03:02:59;;;;;;;28.23;13.83;;;14.40;99.90;;;;;;4924749;29;20875;-75
2022/05/12 03:05:25;;;;;;;43.50;39.30;;;14.40;99.90;;;;;;4927950;29;20211;-77
2022/05/12 03:07:51;;;;;;;24.23;14.50;;;14.40;99.90;;;;;;4926615;29;20845;-78
2022/05/12 03:10:16;;;;;;;28.20;14.53;;;14.40;99.90;;;;;;4928459;29;21045;-77
2022/05/12 03:12:42;;;;;;;34.60;15.67;;;14.40;99.90;;;;;;4926644;29;20319;-79
2022/05/12 03:15:08;;;;;;;27.30;14.07;;;14.30;99.90;;;;;;4916151;29;20199;-74
2022/05/12 03:17:35;;;;;;;46.63;41.60;;;14.30;99.90;;;;;;4926240;29;20207;-80
2022/05/12 03:20:01;;;;;;;119.43;111.57;;;14.30;99.90;;;;;;4927812;29;20182;-80
2022/05/12 03:22:27;;;;;;;100.93;93.83;;;14.30;99.90;;;;;;4926155;29;20207;-81
2022/05/12 03:24:53;;;;;;;411.87;384.83;;;14.30;99.90;;;;;;4928428;29;20209;-79
2022/05/12 03:27:18;;;;;;;272.10;249.17;;;14.30;99.90;;;;;;4926523;29;20306;-78
2022/05/12 03:29:43;;;;;;;618.20;572.30;;;14.20;99.90;;;;;;4928331;29;20189;-80
2022/05/12 03:32:12;;;;;;;620.73;574.63;;;14.20;99.90;;;;;;4926585;29;20239;-77
2022/05/12 03:34:39;;;;;;;456.63;425.07;;;14.20;99.90;;;;;;4927404;29;20289;-76
2022/05/12 03:37:07;;;;;;;721.13;667.70;;;14.20;99.90;;;;;;4926990;29;20780;-75
2022/05/12 03:39:33;;;;;;;704.17;648.57;;;14.10;99.90;;;;;;4928071;29;20205;-74
2022/05/12 03:41:58;;;;;;;455.43;422.10;;;14.10;99.90;;;;;;4923903;29;20660;-75
2022/05/12 03:47:08;;;;;;;595.03;551.57;;;14.10;99.90;;;;;;4913263;29;20235;-74
2022/05/12 03:49:33;;;;;;;532.27;496.40;;;14.00;99.90;;;;;;4927707;29;20191;-75
2022/05/12 03:51:59;;;;;;;755.53;701.07;;;14.00;99.90;;;;;;4925456;29;20258;-73
2022/05/12 03:54:24;;;;;;;663.20;615.70;;;13.90;99.90;;;;;;4928111;29;20631;-73
2022/05/12 03:56:50;;;;;;;398.70;372.40;;;13.90;99.90;;;;;;4924974;29;20202;-74
2022/05/12 03:59:15;;;;;;;501.37;470.43;;;13.90;99.90;;;;;;4927350;29;20191;-75
2022/05/12 04:01:41;;;;;;;400.13;376.93;;;13.90;99.90;;;;;;4926907;29;20265;-76
2022/05/12 04:04:06;;;;;;;618.33;573.60;;;13.80;99.90;;;;;;4925703;29;20211;-75
2022/05/12 04:06:32;;;;;;;576.00;533.60;;;13.90;99.90;;;;;;4914510;29;20199;-77
2022/05/12 04:08:57;;;;;;;685.23;631.27;;;13.90;99.90;;;;;;4925925;29;20697;-70
2022/05/12 04:11:23;;;;;;;677.77;627.23;;;13.80;99.90;;;;;;4925061;29;20199;-75
2022/05/12 04:13:48;;;;;;;552.40;514.30;;;13.80;99.90;;;;;;4925656;29;20210;-75
2022/05/12 04:16:15;;;;;;;620.60;568.73;;;13.90;99.90;;;;;;4915689;29;20230;-76
2022/05/12 04:18:41;;;;;;;691.20;610.87;;;13.90;99.90;;;;;;4925739;29;20246;-76
2022/05/12 04:21:06;;;;;;;703.40;621.77;;;13.80;99.90;;;;;;4918717;29;20233;-75
2022/05/12 04:23:32;;;;;;;686.60;609.90;;;13.80;99.90;;;;;;4925837;29;20210;-76
2022/05/12 04:25:58;;;;;;;462.90;434.77;;;13.80;99.90;;;;;;4925996;29;20225;-75
2022/05/12 04:28:23;;;;;;;716.10;656.93;;;13.70;99.90;;;;;;4925199;29;20237;-74
2022/05/12 04:30:48;;;;;;;721.70;649.20;;;13.70;99.90;;;;;;4927494;29;20226;-75
2022/05/12 04:35:58;;;;;;;791.37;665.07;;;13.80;99.90;;;;;;4924137;29;20344;-71
2022/05/12 04:38:26;;;;;;;754.90;664.10;;;13.80;99.90;;;;;;4925020;29;20682;-71
2022/05/12 04:40:52;;;;;;;707.77;638.33;;;13.80;99.90;;;;;;4927416;29;20207;-71
2022/05/12 04:43:17;;;;;;;697.90;642.13;;;13.80;99.90;;;;;;4926027;29;20207;-73
2022/05/12 04:45:43;;;;;;;699.23;637.40;;;13.70;99.90;;;;;;4929085;29;20210;-74
2022/05/12 04:48:09;;;;;;;720.57;659.77;;;13.80;99.90;;;;;;4922436;29;20230;-72
2022/05/12 04:50:36;;;;;;;689.80;606.37;;;13.90;99.90;;;;;;4930750;29;20202;-74
2022/05/12 04:53:03;;;;;;;766.20;637.40;;;14.00;99.90;;;;;;4928936;29;20231;-71
2022/05/12 04:55:29;;;;;;;778.43;639.90;;;14.10;99.90;;;;;;4931052;29;20187;-81
2022/05/12 04:57:56;;;;;;;761.80;678.57;;;14.10;99.90;;;;;;4928982;29;20203;-82
2022/05/12 05:00:33;;;;;;;703.10;643.73;;;14.30;99.90;;;;;;4930231;29;20213;-79
2022/05/12 05:02:59;;;;;;;724.03;659.93;;;14.40;99.90;;;;;;4929029;29;20202;-76
2022/05/12 05:05:25;;;;;;;748.20;679.87;;;14.40;99.90;;;;;;4930567;29;20222;-78
2022/05/12 05:07:51;;;;;;;764.90;656.63;;;14.50;99.90;;;;;;4928781;29;20207;-79
2022/05/12 05:10:17;;;;;;;769.93;632.57;;;14.50;99.90;;;;;;4930159;29;20615;-82
2022/05/12 05:12:43;;;;;;;726.93;644.67;;;14.60;99.90;;;;;;4927876;29;20199;-81
2022/05/12 05:15:10;;;;;;;789.87;625.17;;;14.60;99.90;;;;;;4930093;29;20195;-80
2022/05/12 05:17:36;;;;;;;799.17;638.13;;;14.60;99.90;;;;;;4928344;29;20691;-77
2022/05/12 05:20:10;;;;;;;740.00;640.17;;;14.70;99.90;;;;;;4930420;29;20193;-80
2022/05/12 05:22:36;;;;;;;748.13;666.33;;;14.60;99.90;;;;;;4928176;29;20234;-78
2022/05/12 05:25:03;;;;;;;750.00;666.47;;;14.60;99.90;;;;;;4930440;29;20207;-82
2022/05/12 05:27:28;;;;;;;762.33;687.07;;;14.70;99.90;;;;;;4928459;29;20250;-81
2022/05/12 05:29:54;;;;;;;826.17;681.10;;;14.70;99.90;;;;;;4930632;29;20199;-81
2022/05/12 05:32:20;;;;;;;775.53;643.87;;;14.70;99.90;;;;;;4928385;29;20229;-81
2022/05/12 05:34:47;;;;;;;670.60;607.83;;;14.60;99.90;;;;;;4930122;29;20592;-82
2022/05/12 05:37:12;;;;;;;699.23;647.80;;;14.60;99.90;;;;;;4929103;29;20682;-81
2022/05/12 05:39:38;;;;;;;755.67;680.50;;;14.60;99.90;;;;;;4932842;29;20191;-80
2022/05/12 05:42:09;;;;;;;723.23;651.83;;;14.70;99.90;;;;;;4928648;29;20235;-81
2022/05/12 05:44:34;;;;;;;713.23;657.47;;;14.60;99.90;;;;;;4930954;29;20211;-82
2022/05/12 05:47:00;;;;;;;774.27;697.67;;;14.70;99.90;;;;;;4928738;29;20667;-79
2022/05/12 05:49:28;;;;;;;735.67;591.03;;;14.70;99.90;;;;;;4929588;29;20193;-77
2022/05/12 05:54:38;;;;;;;739.70;617.17;;;14.80;99.90;;;;;;4930106;29;20286;-81
2022/05/12 05:57:04;;;;;;;747.40;643.67;;;14.80;99.90;;;;;;4926899;29;21037;-80
2022/05/12 05:59:29;;;;;;;696.00;624.80;;;14.80;99.90;;;;;;4930485;29;20183;-81
2022/05/12 06:01:56;;;;;;;731.93;655.77;;;14.80;99.90;;;;;;4926087;29;20226;-79
2022/05/12 06:04:21;;;;;;;709.73;639.27;;;14.80;99.90;;;;;;4930280;29;20343;-83
2022/05/12 06:06:47;;;;;;;761.87;668.93;;;14.70;99.90;;;;;;4914719;29;20662;-80
2022/05/12 06:09:13;;;;;;;716.17;642.47;;;14.80;99.90;;;;;;4928068;29;20206;-81
2022/05/12 06:11:41;;;;;;;695.70;609.03;;;14.90;99.90;;;;;;4927480;29;20202;-78
2022/05/12 06:14:07;;;;;;;698.93;628.90;;;15.00;99.90;;;;;;4928896;29;20207;-79
2022/05/12 06:16:32;;;;;;;719.17;663.33;;;15.10;99.90;;;;;;4927352;29;20217;-79
2022/05/12 06:18:58;;;;;;;709.13;640.00;;;15.20;99.90;;;;;;4929720;29;20191;-79
2022/05/12 06:21:23;;;;;;;720.47;664.87;;;15.20;99.90;;;;;;4928117;29;20573;-78
2022/05/12 06:23:49;;;;;;;730.60;679.83;;;15.10;99.90;;;;;;4929297;29;20194;-80
2022/05/12 06:26:15;;;;;;;714.80;659.90;;;15.10;99.90;;;;;;4927422;29;20852;-79
2022/05/12 06:28:45;;;;;;;727.57;652.03;;;15.00;99.90;;;;;;4928875;29;20557;-80
2022/05/12 06:31:11;;;;;;;595.03;541.93;;;15.00;99.90;;;;;;4926956;29;20249;-80
2022/05/12 06:33:37;;;;;;;745.53;672.37;;;15.00;99.90;;;;;;4928887;29;20738;-77
2022/05/12 06:36:04;;;;;;;426.53;401.67;;;14.90;99.90;;;;;;4927499;29;20251;-77
2022/05/12 06:38:31;;;;;;;725.07;674.13;;;14.90;99.90;;;;;;4928916;29;20576;-78
2022/05/12 06:40:56;;;;;;;750.40;674.40;;;15.00;99.90;;;;;;4927260;29;20234;-77
2022/05/12 06:43:23;;;;;;;791.57;611.03;;;14.90;99.90;;;;;;4928909;29;20240;-78
2022/05/12 06:45:49;;;;;;;737.87;651.50;;;15.10;99.90;;;;;;4927136;29;20219;-77
2022/05/12 06:48:15;;;;;;;778.57;658.70;;;15.20;99.90;;;;;;4929169;29;20197;-77
2022/05/12 06:50:41;;;;;;;777.00;579.70;;;15.30;99.90;;;;;;4926783;29;20294;-76
2022/05/12 06:53:07;;;;;;;768.93;663.83;;;15.30;99.90;;;;;;4929296;29;20230;-77
2022/05/12 06:55:33;;;;;;;811.20;692.20;;;15.40;99.90;;;;;;4927212;29;20218;-79
2022/05/12 06:57:58;;;;;;;798.70;651.50;;;15.40;99.90;;;;;;4929183;29;20188;-78
2022/05/12 07:00:24;;;;;;;785.47;611.37;;;15.40;99.90;;;;;;4928008;29;20585;-79
2022/05/12 07:02:51;;;;;;;743.87;650.27;;;15.20;99.90;;;;;;4929072;29;20191;-78
2022/05/12 07:05:22;;;;;;;773.77;628.33;;;15.20;99.90;;;;;;4927846;29;20219;-78
2022/05/12 07:07:48;;;;;;;754.00;669.00;;;15.40;99.90;;;;;;4928622;29;20194;-79
2022/05/12 07:10:15;;;;;;;786.20;654.67;;;15.40;99.90;;;;;;4927310;29;20572;-77
2022/05/12 07:12:43;;;;;;;794.83;667.63;;;15.30;99.90;;;;;;4928700;29;20193;-79
2022/05/12 07:15:09;;;;;;;832.27;675.63;;;15.30;99.90;;;;;;4926670;29;20222;-78
2022/05/12 07:17:37;;;;;;;795.27;634.47;;;15.50;99.90;;;;;;4928522;29;20206;-76
2022/05/12 07:28:18;;;;;;;785.03;690.67;;;15.50;99.90;;;;;;4928622;29;20198;-78
2022/05/12 07:31:02;;;;;;;797.67;688.70;;;15.50;99.90;;;;;;4926141;29;20255;-79
2022/05/12 07:33:40;;;;;;;757.93;686.00;;;15.50;99.90;;;;;;4928186;29;20238;-79
2022/05/12 07:36:10;;;;;;;766.23;705.80;;;15.40;99.90;;;;;;4916301;29;20333;-85
2022/05/12 07:38:37;;;;;;;778.90;701.27;;;15.20;99.90;;;;;;4926779;29;20203;-77
2022/05/12 07:41:04;;;;;;;767.57;685.23;;;15.20;99.90;;;;;;4925459;29;20257;-77
2022/05/12 07:43:29;;;;;;;789.90;706.07;;;15.30;99.90;;;;;;4927025;29;20199;-77
2022/05/12 07:45:55;;;;;;;787.93;712.37;;;15.50;99.90;;;;;;4925124;29;20748;-77
2022/05/12 07:48:20;;;;;;;774.10;703.57;;;15.60;99.90;;;;;;4927455;29;20697;-78
2022/05/12 07:50:46;;;;;;;754.27;686.03;;;15.60;99.90;;;;;;4925458;29;20206;-77
2022/05/12 07:53:12;;;;;;;776.20;698.00;;;15.40;99.90;;;;;;4927686;29;20213;-84
2022/05/12 07:55:37;;;;;;;798.23;717.30;;;15.20;99.90;;;;;;4913867;29;20562;-80
2022/05/12 07:58:04;;;;;;;793.90;662.80;;;15.10;99.90;;;;;;4927974;29;20194;-80
2022/05/12 08:00:31;;;;;;;766.67;703.73;;;15.20;99.90;;;;;;4924265;29;20562;-81
2022/05/12 08:02:57;;;;;;;761.63;695.43;;;15.10;99.90;;;;;;4927778;29;20838;-79
2022/05/12 08:05:24;;;;;;;733.57;668.53;;;15.10;99.90;;;;;;4919469;29;20246;-79
2022/05/12 08:07:51;;;;;;;754.53;680.00;;;15.20;99.90;;;;;;4927848;29;20188;-79
2022/05/12 08:10:17;;;;;;;756.43;674.43;;;15.20;99.90;;;;;;4925612;29;20218;-79
2022/05/12 08:12:42;;;;;;;790.60;709.50;;;15.20;99.90;;;;;;4927650;29;20191;-78
2022/05/12 08:15:09;;;;;;;777.57;716.77;;;15.50;99.90;;;;;;4925928;29;20199;-77
2022/05/12 08:17:36;;;;;;;789.43;704.70;;;15.60;99.90;;;;;;4927434;29;20202;-76
2022/05/12 08:20:05;;;;;;;805.17;736.20;;;15.60;99.90;;;;;;4925438;29;20649;-77
2022/05/12 08:22:31;;;;;;;750.57;683.10;;;15.50;99.90;;;;;;4927675;29;20191;-77
2022/05/12 08:24:57;;;;;;;815.83;741.37;;;15.50;99.90;;;;;;4925569;29;20705;-76
2022/05/12 08:27:24;;;;;;;803.30;729.53;;;15.80;99.90;;;;;;4927686;29;20211;-76
2022/05/12 08:29:49;;;;;;;785.87;726.23;;;15.80;99.90;;;;;;4927481;29;20199;-76
2022/05/12 08:32:15;;;;;;;809.60;747.37;;;15.90;99.90;;;;;;4925411;29;20262;-77
2022/05/12 08:34:40;;;;;;;832.83;756.37;;;15.90;99.90;;;;;;4926868;29;20206;-77
2022/05/12 08:37:06;;;;;;;773.87;689.87;;;16.10;99.90;;;;;;4925792;29;20211;-81
2022/05/12 08:39:31;;;;;;;708.43;660.90;;;16.10;99.90;;;;;;4927572;29;20251;-77
2022/05/12 08:42:15;;;;;;;593.67;556.43;;;16.30;99.90;;;;;;4925384;29;20625;-78
2022/05/12 08:44:40;;;;;;;448.57;424.27;;;16.30;99.90;;;;;;4920272;29;20215;-76
2022/05/12 08:47:16;;;;;;;485.80;459.40;;;16.10;99.90;;;;;;4925610;29;20211;-77
2022/05/12 08:49:45;;;;;;;517.17;487.00;;;15.90;99.90;;;;;;4910937;29;20222;-77
2022/05/12 08:52:22;;;;;;;364.93;345.57;;;15.80;99.90;;;;;;4925805;29;20199;-76
2022/05/12 08:55:01;;;;;;;598.73;561.80;;;15.90;99.90;;;;;;4916372;29;20187;-78
2022/05/12 08:57:55;;;;;;;441.53;418.40;;;16.30;99.90;;;;;;4913240;29;20203;-77
2022/05/12 09:00:22;;;;;;;186.63;177.47;;;16.70;99.50;;;;;;4908149;29;20219;-77
2022/05/12 09:03:02;;;;;;;127.73;121.37;;;16.70;97.90;;;;;;4927426;29;20192;-76
2022/05/12 09:05:35;;;;;;;257.60;245.80;;;16.60;98.10;;;;;;4925248;29;20222;-77
2022/05/12 09:08:25;;;;;;;303.83;289.93;;;16.50;98.20;;;;;;4927278;29;20190;-77
2022/05/12 09:11:04;;;;;;;295.67;281.23;;;16.60;97.60;;;;;;4914917;29;20210;-77
2022/05/12 09:13:49;;;;;;;385.30;365.43;;;16.40;96.90;;;;;;4926139;29;20339;-78
2022/05/12 09:16:19;;;;;;;277.83;264.83;;;16.10;97.40;;;;;;4925130;29;20237;-78
2022/05/12 09:18:45;;;;;;;294.17;280.03;;;16.40;98.10;;;;;;4927376;29;20277;-78
2022/05/12 09:21:14;;;;;;;281.13;267.37;;;16.40;98.70;;;;;;4924875;29;20295;-77
2022/05/12 09:23:40;;;;;;;261.30;249.27;;;16.30;98.20;;;;;;4926923;29;20280;-77
2022/05/12 09:26:37;;;;;;;284.50;271.30;;;16.20;97.80;;;;;;4925230;29;20255;-77
2022/05/12 09:29:21;;;;;;;296.67;282.17;;;16.20;97.70;;;;;;4926455;29;20192;-77
2022/05/12 09:32:15;;;;;;;352.43;335.40;;;16.30;97.50;;;;;;4922358;29;20195;-77
2022/05/12 09:34:46;;;;;;;360.00;342.47;;;16.70;96.10;;;;;;4917495;29;20286;-77
2022/05/12 09:37:26;;;;;;;383.20;363.70;;;16.80;95.20;;;;;;4928974;29;20222;-76
2022/05/12 09:39:57;;;;;;;404.03;383.63;;;16.90;96.00;;;;;;4911723;29;20705;-80
2022/05/12 09:42:29;;;;;;;419.63;397.83;;;16.80;95.30;;;;;;4919368;29;20653;-75
2022/05/12 09:45:07;;;;;;;494.03;466.77;;;16.90;96.10;;;;;;4928144;29;20764;-80
2022/05/12 09:47:34;;;;;;;464.40;439.67;;;16.80;96.20;;;;;;4929673;29;20184;-73
2022/05/12 09:50:21;;;;;;;450.83;423.03;;;16.60;96.10;;;;;;4927433;29;20809;-73
2022/05/12 09:53:00;;;;;;;424.20;401.60;;;16.80;95.30;;;;;;4918225;29;20282;-73
2022/05/12 09:55:32;;;;;;;351.23;333.97;;;17.10;95.80;;;;;;4921619;29;20200;-76
2022/05/12 09:58:01;;;;;;;320.53;305.17;;;17.20;93.70;;;;;;4929582;29;20254;-81
2022/05/12 10:00:43;;;;;;;376.07;356.27;;;17.30;90.20;;;;;;4928313;29;20255;-77
2022/05/12 10:09:06;;;;;;;154.83;147.00;;;17.70;91.10;;;;;;4926926;29;20321;-76
2022/05/12 10:11:46;;;;;;;98.77;93.27;;;17.60;91.70;;;;;;4927273;29;20569;-77
2022/05/12 10:14:22;;;;;;;335.40;319.27;;;17.50;92.00;;;;;;4929978;29;20270;-76
2022/05/12 10:16:50;;;;;;;142.93;135.80;;;17.30;91.80;;;;;;4927745;29;20263;-74
2022/05/12 10:19:22;;;;;;;134.90;127.70;;;17.40;91.30;;;;;;4929733;29;20582;-76
2022/05/12 10:21:54;;;;;;;100.70;93.10;;;17.60;86.30;;;;;;4924151;29;20223;-69
2022/05/12 10:24:41;;;;;;;880.10;803.90;;;17.70;93.40;;;;;;4914324;29;20238;-69
2022/05/12 10:27:16;;;;;;;822.67;731.20;;;17.40;87.70;;;;;;4927268;29;20316;-68
2022/05/12 10:30:19;;;;;;;913.97;819.10;;;17.50;88.80;;;;;;4928292;29;20904;-70
2022/05/12 10:32:57;;;;;;;866.47;776.83;;;17.40;88.40;;;;;;4921728;29;20647;-69
2022/05/12 10:35:35;;;;;;;869.23;779.50;;;17.10;87.90;;;;;;4924231;29;20500;-69
2022/05/12 10:38:17;;;;;;;823.83;734.83;;;17.00;90.30;;;;;;4928353;29;20207;-70
2022/05/12 10:40:46;;;;;;;875.90;782.80;;;16.90;90.40;;;;;;4926719;29;20211;-70
2022/05/12 10:43:39;;;;;;;859.03;766.87;;;16.90;90.80;;;;;;4928301;29;20390;-69
2022/05/12 10:46:17;;;;;;;892.13;797.63;;;17.00;90.30;;;;;;4917566;29;20927;-69
2022/05/12 10:48:49;;;;;;;922.30;832.90;;;17.20;87.30;;;;;;4928457;29;20187;-69
2022/05/12 10:51:19;;;;;;;884.83;791.07;;;17.60;89.70;;;;;;4927193;29;20234;-68
2022/05/12 10:54:18;;;;;;;883.63;790.73;;;17.70;87.00;;;;;;4924479;29;20233;-66
2022/05/12 10:56:53;;;;;;;915.33;820.97;;;17.70;87.00;;;;;;4924416;29;20198;-70
2022/05/12 10:59:33;;;;;;;867.97;775.87;;;17.90;85.60;;;;;;4928602;29;20310;-70
2022/05/12 11:02:22;;;;;;;901.33;809.20;;;18.00;85.60;;;;;;4926922;29;20259;-68
2022/05/12 11:05:09;;;;;;;906.40;812.67;;;18.30;83.00;;;;;;4909696;29;20286;-68
2022/05/12 11:07:42;;;;;;;936.03;841.17;;;18.60;84.30;;;;;;4909808;29;20186;-69
2022/05/12 11:10:33;;;;;;;916.27;822.37;;;18.10;85.30;;;;;;4924223;29;20467;-70
2022/05/12 11:13:04;;;;;;;902.77;810.47;;;18.00;84.80;;;;;;4925049;29;20233;-69
2022/05/12 11:15:57;;;;;;;922.40;827.87;;;18.00;88.00;;;;;;4928830;29;20645;-69
2022/05/12 11:18:46;;;;;;;937.63;845.73;;;18.50;87.40;;;;;;4925394;29;20623;-77
2022/05/12 11:21:20;;;;;;;966.30;870.90;;;18.90;86.40;;;;;;4920954;29;20224;-69
2022/05/12 11:24:27;;;;;;;961.97;866.63;;;19.10;82.90;;;;;;4927007;29;20204;-69
2022/05/12 11:27:02;;;;;;;934.10;846.47;;;18.80;85.30;;;;;;4925262;29;20226;-69
2022/05/12 11:29:51;;;;;;;926.67;842.60;;;18.10;83.80;;;;;;4921779;29;20351;-69
2022/05/12 11:32:41;;;;;;;960.57;873.30;;;18.30;84.80;;;;;;4920524;29;20210;-69
2022/05/12 11:35:22;;;;;;;957.43;866.57;;;18.80;83.60;;;;;;4923011;29;20261;-70
2022/05/12 11:38:32;;;;;;;962.70;872.90;;;18.80;82.20;;;;;;4921752;29;20245;-70
2022/05/12 11:40:58;;;;;;;986.17;896.47;;;19.50;78.60;;;;;;4916258;29;20217;-69
2022/05/12 11:47:01;;;;;;;1002.57;916.20;;;19.80;73.30;;;;;;4920199;29;20218;-70
2022/05/12 11:49:40;;;;;;;980.30;885.13;;;19.60;72.30;;;;;;4928026;29;20210;-70
2022/05/12 11:52:20;;;;;;;1005.53;908.73;;;19.20;72.60;;;;;;4916971;29;20210;-70
2022/05/12 11:54:52;;;;;;;984.53;889.77;;;18.90;74.30;;;;;;4927194;29;20435;-70
2022/05/12 11:57:32;;;;;;;990.40;894.73;;;19.10;75.50;;;;;;4925827;29;20204;-70
2022/05/12 11:59:59;;;;;;;981.27;893.47;;;19.10;75.40;;;;;;4927815;29;20772;-71
2022/05/12 12:02:28;;;;;;;993.47;908.80;;;19.50;74.60;;;;;;4918963;29;20848;-69
2022/05/12 12:04:55;;;;;;;980.40;897.40;;;19.20;74.30;;;;;;4927834;29;20716;-70
2022/05/12 12:07:32;;;;;;;998.37;911.33;;;19.20;74.90;;;;;;4925848;29;20210;-70
2022/05/12 12:10:33;;;;;;;1014.57;923.30;;;19.10;74.90;;;;;;4928156;29;20748;-70
2022/05/12 12:13:05;;;;;;;981.67;886.77;;;19.10;74.90;;;;;;4922632;29;20223;-70
2022/05/12 12:15:32;;;;;;;976.77;881.43;;;19.10;76.10;;;;;;4921775;29;20286;-70
2022/05/12 12:18:00;;;;;;;996.83;900.10;;;19.20;76.10;;;;;;4925506;29;20224;-70
2022/05/12 12:20:29;;;;;;;977.20;880.70;;;19.00;72.90;;;;;;4927684;29;20631;-70
2022/05/12 12:22:57;;;;;;;954.03;859.30;;;18.60;74.10;;;;;;4925889;29;20228;-70
2022/05/12 12:25:43;;;;;;;987.97;892.77;;;19.10;75.10;;;;;;4927158;29;20210;-69
2022/05/12 12:28:38;;;;;;;975.40;879.60;;;19.70;72.80;;;;;;4926113;29;20213;-69
2022/05/12 12:31:08;;;;;;;1011.50;911.73;;;19.50;71.60;;;;;;4925476;29;20204;-69
2022/05/12 12:33:35;;;;;;;1006.90;911.33;;;20.00;70.30;;;;;;4927912;29;20190;-69
2022/05/12 12:36:12;;;;;;;1018.43;922.43;;;20.50;71.30;;;;;;4925169;29;20268;-69
2022/05/12 12:38:46;;;;;;;1035.23;937.77;;;20.40;69.50;;;;;;4928082;29;20203;-70
2022/05/12 12:41:21;;;;;;;1031.13;931.20;;;19.70;69.40;;;;;;4921316;29;20632;-70
2022/05/12 12:43:55;;;;;;;1002.47;911.80;;;19.40;70.50;;;;;;4927511;29;20294;-69
2022/05/12 12:46:26;;;;;;;1002.90;907.10;;;19.20;71.00;;;;;;4918122;29;20270;-69
2022/05/12 12:48:59;;;;;;;1020.30;923.20;;;19.80;71.00;;;;;;4927095;29;20678;-69
2022/05/12 12:51:34;;;;;;;1070.90;969.83;;;20.10;69.10;;;;;;4913191;29;20199;-69